sensor_id;sensor_type;location;lat;lon;timestamp;P1;durP1;ratioP1;P2;durP2;ratioP2
5754;SDS011;2902;42.130;24.732;2023-04-03T00:01:32;1.27;;;1.20;;
5754;SDS011;2902;42.130;24.732;2023-04-03T00:04:00;3.13;;;1.20;;
5754;SDS011;2902;42.130;24.732;2023-04-03T00:06:27;1.20;;;1.10;;
5754;SDS011;2902;42.130;24.732;2023-04-03T00:08:53;1.10;;;1.10;;
5754;SDS011;2902;42.130;24.732;2023-04-03T00:11:21;2.73;;;1.30;;
5754;SDS011;2902;42.130;24.732;2023-04-03T00:13:48;1.60;;;1.50;;
5754;SDS011;2902;42.130;24.732;2023-04-03T00:16:15;1.30;;;1.20;;
5754;SDS011;2902;42.130;24.732;2023-04-03T00:18:41;1.77;;;1.10;;
5754;SDS011;2902;42.130;24.732;2023-04-03T00:21:09;1.30;;;1.07;;
5754;SDS011;2902;42.130;24.732;2023-04-03T00:23:38;2.27;;;1.50;;
5754;SDS011;2902;42.130;24.732;2023-04-03T00:26:04;1.73;;;1.10;;
5754;SDS011;2902;42.130;24.732;2023-04-03T00:28:33;1.00;;;1.00;;
5754;SDS011;2902;42.130;24.732;2023-04-03T00:30:59;2.13;;;1.57;;
5754;SDS011;2902;42.130;24.732;2023-04-03T00:33:26;2.17;;;1.60;;
5754;SDS011;2902;42.130;24.732;2023-04-03T00:35:53;1.33;;;1.33;;
5754;SDS011;2902;42.130;24.732;2023-04-03T00:38:19;1.60;;;1.50;;
5754;SDS011;2902;42.130;24.732;2023-04-03T00:40:47;1.73;;;1.63;;
5754;SDS011;2902;42.130;24.732;2023-04-03T00:43:16;3.50;;;1.50;;
5754;SDS011;2902;42.130;24.732;2023-04-03T00:45:46;4.53;;;1.90;;
5754;SDS011;2902;42.130;24.732;2023-04-03T00:48:15;2.67;;;1.80;;
5754;SDS011;2902;42.130;24.732;2023-04-03T00:50:44;3.30;;;1.80;;
5754;SDS011;2902;42.130;24.732;2023-04-03T00:53:14;1.70;;;1.60;;
5754;SDS011;2902;42.130;24.732;2023-04-03T00:55:44;2.30;;;2.00;;
5754;SDS011;2902;42.130;24.732;2023-04-03T00:58:13;3.23;;;1.67;;
5754;SDS011;2902;42.130;24.732;2023-04-03T01:00:42;1.73;;;1.60;;
5754;SDS011;2902;42.130;24.732;2023-04-03T01:03:14;2.03;;;1.73;;
5754;SDS011;2902;42.130;24.732;2023-04-03T01:05:40;2.23;;;2.13;;
5754;SDS011;2902;42.130;24.732;2023-04-03T01:08:07;1.93;;;1.67;;
5754;SDS011;2902;42.130;24.732;2023-04-03T01:10:34;1.77;;;1.67;;
5754;SDS011;2902;42.130;24.732;2023-04-03T01:13:01;1.63;;;1.60;;
5754;SDS011;2902;42.130;24.732;2023-04-03T01:15:43;1.70;;;1.60;;
5754;SDS011;2902;42.130;24.732;2023-04-03T01:18:11;2.17;;;2.07;;
5754;SDS011;2902;42.130;24.732;2023-04-03T01:20:50;2.50;;;2.07;;
5754;SDS011;2902;42.130;24.732;2023-04-03T01:23:58;1.60;;;1.50;;
5754;SDS011;2902;42.130;24.732;2023-04-03T01:26:35;1.70;;;1.60;;
5754;SDS011;2902;42.130;24.732;2023-04-03T01:29:02;2.80;;;2.10;;
5754;SDS011;2902;42.130;24.732;2023-04-03T01:34:12;1.93;;;1.83;;
5754;SDS011;2902;42.130;24.732;2023-04-03T01:36:39;1.90;;;1.80;;
5754;SDS011;2902;42.130;24.732;2023-04-03T01:39:06;4.10;;;1.90;;
5754;SDS011;2902;42.130;24.732;2023-04-03T01:41:33;3.90;;;1.87;;
5754;SDS011;2902;42.130;24.732;2023-04-03T01:43:59;2.87;;;2.30;;
5754;SDS011;2902;42.130;24.732;2023-04-03T01:46:26;7.10;;;2.23;;
5754;SDS011;2902;42.130;24.732;2023-04-03T01:48:54;5.97;;;1.83;;
5754;SDS011;2902;42.130;24.732;2023-04-03T01:51:21;2.43;;;2.23;;
5754;SDS011;2902;42.130;24.732;2023-04-03T01:53:48;10.27;;;2.80;;
5754;SDS011;2902;42.130;24.732;2023-04-03T01:56:15;10.90;;;2.23;;
5754;SDS011;2902;42.130;24.732;2023-04-03T01:58:41;8.77;;;2.53;;
5754;SDS011;2902;42.130;24.732;2023-04-03T02:01:08;9.67;;;2.50;;
5754;SDS011;2902;42.130;24.732;2023-04-03T02:03:35;7.50;;;2.23;;
5754;SDS011;2902;42.130;24.732;2023-04-03T02:06:03;5.23;;;1.87;;
5754;SDS011;2902;42.130;24.732;2023-04-03T02:08:30;2.70;;;1.67;;
5754;SDS011;2902;42.130;24.732;2023-04-03T02:10:57;4.47;;;1.83;;
5754;SDS011;2902;42.130;24.732;2023-04-03T02:13:24;6.60;;;2.20;;
5754;SDS011;2902;42.130;24.732;2023-04-03T02:15:50;3.83;;;1.80;;
5754;SDS011;2902;42.130;24.732;2023-04-03T02:18:17;3.97;;;1.77;;
5754;SDS011;2902;42.130;24.732;2023-04-03T02:20:44;6.20;;;2.47;;
5754;SDS011;2902;42.130;24.732;2023-04-03T02:23:13;10.13;;;2.83;;
5754;SDS011;2902;42.130;24.732;2023-04-03T02:25:40;6.97;;;2.40;;
5754;SDS011;2902;42.130;24.732;2023-04-03T02:28:07;3.27;;;2.23;;
5754;SDS011;2902;42.130;24.732;2023-04-03T02:30:33;2.30;;;2.13;;
5754;SDS011;2902;42.130;24.732;2023-04-03T02:33:00;5.37;;;2.83;;
5754;SDS011;2902;42.130;24.732;2023-04-03T02:35:27;7.23;;;2.80;;
5754;SDS011;2902;42.130;24.732;2023-04-03T02:37:53;5.40;;;2.77;;
5754;SDS011;2902;42.130;24.732;2023-04-03T02:40:23;3.40;;;2.90;;
5754;SDS011;2902;42.130;24.732;2023-04-03T02:42:50;4.67;;;3.30;;
5754;SDS011;2902;42.130;24.732;2023-04-03T02:45:16;4.70;;;3.10;;
5754;SDS011;2902;42.130;24.732;2023-04-03T02:47:43;6.00;;;3.43;;
5754;SDS011;2902;42.130;24.732;2023-04-03T02:50:10;5.17;;;3.60;;
5754;SDS011;2902;42.130;24.732;2023-04-03T02:52:36;3.33;;;3.03;;
5754;SDS011;2902;42.130;24.732;2023-04-03T02:55:03;10.63;;;3.47;;
5754;SDS011;2902;42.130;24.732;2023-04-03T02:57:32;13.00;;;4.70;;
5754;SDS011;2902;42.130;24.732;2023-04-03T02:59:59;6.87;;;3.60;;
5754;SDS011;2902;42.130;24.732;2023-04-03T03:02:25;5.00;;;3.43;;
5754;SDS011;2902;42.130;24.732;2023-04-03T03:04:52;6.17;;;3.83;;
5754;SDS011;2902;42.130;24.732;2023-04-03T03:07:19;9.67;;;3.90;;
5754;SDS011;2902;42.130;24.732;2023-04-03T03:09:45;7.27;;;3.87;;
5754;SDS011;2902;42.130;24.732;2023-04-03T03:12:12;7.60;;;4.00;;
5754;SDS011;2902;42.130;24.732;2023-04-03T03:14:41;4.03;;;3.73;;
5754;SDS011;2902;42.130;24.732;2023-04-03T03:17:07;5.27;;;4.30;;
5754;SDS011;2902;42.130;24.732;2023-04-03T03:19:34;5.40;;;3.53;;
5754;SDS011;2902;42.130;24.732;2023-04-03T03:22:01;7.63;;;3.97;;
5754;SDS011;2902;42.130;24.732;2023-04-03T03:24:27;6.30;;;4.00;;
5754;SDS011;2902;42.130;24.732;2023-04-03T03:26:54;14.63;;;12.20;;
5754;SDS011;2902;42.130;24.732;2023-04-03T03:29:21;11.93;;;5.70;;
5754;SDS011;2902;42.130;24.732;2023-04-03T03:31:49;6.70;;;4.13;;
5754;SDS011;2902;42.130;24.732;2023-04-03T03:34:16;12.43;;;3.70;;
5754;SDS011;2902;42.130;24.732;2023-04-03T03:36:43;21.33;;;8.33;;
5754;SDS011;2902;42.130;24.732;2023-04-03T03:39:09;14.00;;;4.77;;
5754;SDS011;2902;42.130;24.732;2023-04-03T03:41:36;16.80;;;4.83;;
5754;SDS011;2902;42.130;24.732;2023-04-03T03:44:03;13.33;;;5.17;;
5754;SDS011;2902;42.130;24.732;2023-04-03T03:46:30;24.07;;;6.03;;
5754;SDS011;2902;42.130;24.732;2023-04-03T03:48:58;17.13;;;5.30;;
5754;SDS011;2902;42.130;24.732;2023-04-03T03:51:25;11.67;;;5.10;;
5754;SDS011;2902;42.130;24.732;2023-04-03T03:53:52;18.10;;;5.33;;
5754;SDS011;2902;42.130;24.732;2023-04-03T03:56:18;16.53;;;5.67;;
5754;SDS011;2902;42.130;24.732;2023-04-03T03:58:45;12.63;;;5.70;;
5754;SDS011;2902;42.130;24.732;2023-04-03T04:01:12;25.33;;;5.77;;
5754;SDS011;2902;42.130;24.732;2023-04-03T04:03:38;14.60;;;6.03;;
5754;SDS011;2902;42.130;24.732;2023-04-03T04:06:07;11.33;;;5.37;;
5754;SDS011;2902;42.130;24.732;2023-04-03T04:08:33;9.17;;;5.43;;
5754;SDS011;2902;42.130;24.732;2023-04-03T04:11:00;20.07;;;5.23;;
5754;SDS011;2902;42.130;24.732;2023-04-03T04:13:27;20.47;;;6.37;;
5754;SDS011;2902;42.130;24.732;2023-04-03T04:15:54;15.63;;;5.80;;
5754;SDS011;2902;42.130;24.732;2023-04-03T04:18:20;18.43;;;5.70;;
5754;SDS011;2902;42.130;24.732;2023-04-03T04:20:47;8.37;;;5.70;;
5754;SDS011;2902;42.130;24.732;2023-04-03T04:23:15;15.67;;;7.77;;
5754;SDS011;2902;42.130;24.732;2023-04-03T04:25:44;15.53;;;6.20;;
5754;SDS011;2902;42.130;24.732;2023-04-03T04:28:10;19.47;;;7.80;;
5754;SDS011;2902;42.130;24.732;2023-04-03T04:30:37;22.10;;;7.27;;
5754;SDS011;2902;42.130;24.732;2023-04-03T04:33:04;23.63;;;6.57;;
5754;SDS011;2902;42.130;24.732;2023-04-03T04:35:31;18.93;;;6.20;;
5754;SDS011;2902;42.130;24.732;2023-04-03T04:37:58;20.33;;;6.87;;
5754;SDS011;2902;42.130;24.732;2023-04-03T04:40:27;13.60;;;5.10;;
5754;SDS011;2902;42.130;24.732;2023-04-03T04:42:53;8.00;;;5.27;;
5754;SDS011;2902;42.130;24.732;2023-04-03T04:45:20;24.27;;;5.80;;
5754;SDS011;2902;42.130;24.732;2023-04-03T04:47:47;46.57;;;7.37;;
5754;SDS011;2902;42.130;24.732;2023-04-03T04:50:16;18.97;;;6.00;;
5754;SDS011;2902;42.130;24.732;2023-04-03T04:52:43;29.23;;;12.07;;
5754;SDS011;2902;42.130;24.732;2023-04-03T04:55:10;30.23;;;7.17;;
5754;SDS011;2902;42.130;24.732;2023-04-03T04:57:38;46.23;;;6.83;;
5754;SDS011;2902;42.130;24.732;2023-04-03T05:00:05;23.50;;;6.60;;
5754;SDS011;2902;42.130;24.732;2023-04-03T05:02:32;43.13;;;7.10;;
5754;SDS011;2902;42.130;24.732;2023-04-03T05:04:59;38.63;;;7.10;;
5754;SDS011;2902;42.130;24.732;2023-04-03T05:07:26;27.23;;;6.70;;
5754;SDS011;2902;42.130;24.732;2023-04-03T05:09:53;12.37;;;5.90;;
5754;SDS011;2902;42.130;24.732;2023-04-03T05:12:19;20.37;;;8.37;;
5754;SDS011;2902;42.130;24.732;2023-04-03T05:14:49;19.37;;;6.77;;
5754;SDS011;2902;42.130;24.732;2023-04-03T05:17:16;33.67;;;15.70;;
5754;SDS011;2902;42.130;24.732;2023-04-03T05:19:42;36.70;;;14.33;;
5754;SDS011;2902;42.130;24.732;2023-04-03T05:22:09;30.60;;;9.83;;
5754;SDS011;2902;42.130;24.732;2023-04-03T05:24:36;55.57;;;9.23;;
5754;SDS011;2902;42.130;24.732;2023-04-03T05:27:03;36.70;;;7.33;;
5754;SDS011;2902;42.130;24.732;2023-04-03T05:29:30;38.80;;;7.93;;
5754;SDS011;2902;42.130;24.732;2023-04-03T05:31:58;18.40;;;8.07;;
5754;SDS011;2902;42.130;24.732;2023-04-03T05:34:24;32.40;;;8.63;;
5754;SDS011;2902;42.130;24.732;2023-04-03T05:36:51;18.77;;;7.63;;
5754;SDS011;2902;42.130;24.732;2023-04-03T05:39:20;10.77;;;6.40;;
5754;SDS011;2902;42.130;24.732;2023-04-03T05:41:47;15.37;;;6.53;;
5754;SDS011;2902;42.130;24.732;2023-04-03T05:44:14;13.67;;;6.37;;
5754;SDS011;2902;42.130;24.732;2023-04-03T05:46:43;9.30;;;5.97;;
5754;SDS011;2902;42.130;24.732;2023-04-03T05:49:11;10.20;;;6.00;;
5754;SDS011;2902;42.130;24.732;2023-04-03T05:51:38;17.70;;;5.93;;
5754;SDS011;2902;42.130;24.732;2023-04-03T05:54:08;9.13;;;5.00;;
5754;SDS011;2902;42.130;24.732;2023-04-03T05:56:38;18.57;;;5.53;;
5754;SDS011;2902;42.130;24.732;2023-04-03T05:59:05;10.23;;;4.67;;
5754;SDS011;2902;42.130;24.732;2023-04-03T06:01:32;10.17;;;3.73;;
5754;SDS011;2902;42.130;24.732;2023-04-03T06:04:00;5.63;;;3.93;;
5754;SDS011;2902;42.130;24.732;2023-04-03T06:09:12;5.43;;;4.00;;
5754;SDS011;2902;42.130;24.732;2023-04-03T06:11:39;7.83;;;3.83;;
5754;SDS011;2902;42.130;24.732;2023-04-03T06:14:07;42.63;;;6.30;;
5754;SDS011;2902;42.130;24.732;2023-04-03T06:16:34;35.90;;;5.77;;
5754;SDS011;2902;42.130;24.732;2023-04-03T06:19:00;14.30;;;4.60;;
5754;SDS011;2902;42.130;24.732;2023-04-03T06:21:27;11.63;;;4.30;;
5754;SDS011;2902;42.130;24.732;2023-04-03T06:23:56;6.17;;;4.37;;
5754;SDS011;2902;42.130;24.732;2023-04-03T06:26:23;6.57;;;5.43;;
5754;SDS011;2902;42.130;24.732;2023-04-03T06:28:50;4.93;;;4.40;;
5754;SDS011;2902;42.130;24.732;2023-04-03T06:31:17;7.30;;;4.07;;
5754;SDS011;2902;42.130;24.732;2023-04-03T06:33:43;7.20;;;4.03;;
5754;SDS011;2902;42.130;24.732;2023-04-03T06:36:10;12.70;;;4.17;;
5754;SDS011;2902;42.130;24.732;2023-04-03T06:38:38;5.13;;;3.63;;
5754;SDS011;2902;42.130;24.732;2023-04-03T06:41:06;10.33;;;4.83;;
5754;SDS011;2902;42.130;24.732;2023-04-03T06:43:33;28.23;;;5.83;;
5754;SDS011;2902;42.130;24.732;2023-04-03T06:46:00;13.93;;;4.30;;
5754;SDS011;2902;42.130;24.732;2023-04-03T06:48:26;5.93;;;3.80;;
5754;SDS011;2902;42.130;24.732;2023-04-03T06:50:54;5.57;;;4.23;;
5754;SDS011;2902;42.130;24.732;2023-04-03T06:53:20;6.33;;;3.90;;
5754;SDS011;2902;42.130;24.732;2023-04-03T06:55:47;12.90;;;4.13;;
5754;SDS011;2902;42.130;24.732;2023-04-03T06:58:16;7.70;;;3.57;;
5754;SDS011;2902;42.130;24.732;2023-04-03T07:00:43;3.57;;;3.30;;
5754;SDS011;2902;42.130;24.732;2023-04-03T07:03:10;5.00;;;3.57;;
5754;SDS011;2902;42.130;24.732;2023-04-03T07:05:36;5.73;;;3.83;;
5754;SDS011;2902;42.130;24.732;2023-04-03T07:08:03;13.70;;;4.30;;
5754;SDS011;2902;42.130;24.732;2023-04-03T07:10:30;5.63;;;3.63;;
5754;SDS011;2902;42.130;24.732;2023-04-03T07:12:57;7.57;;;3.60;;
5754;SDS011;2902;42.130;24.732;2023-04-03T07:15:25;13.27;;;4.47;;
5754;SDS011;2902;42.130;24.732;2023-04-03T07:17:52;9.37;;;3.90;;
5754;SDS011;2902;42.130;24.732;2023-04-03T07:20:18;7.17;;;4.00;;
5754;SDS011;2902;42.130;24.732;2023-04-03T07:22:45;10.87;;;3.87;;
5754;SDS011;2902;42.130;24.732;2023-04-03T07:25:12;20.67;;;4.87;;
5754;SDS011;2902;42.130;24.732;2023-04-03T07:27:38;7.67;;;3.97;;
5754;SDS011;2902;42.130;24.732;2023-04-03T07:30:06;20.10;;;4.67;;
5754;SDS011;2902;42.130;24.732;2023-04-03T07:32:35;20.93;;;4.33;;
5754;SDS011;2902;42.130;24.732;2023-04-03T07:35:02;33.67;;;5.20;;
5754;SDS011;2902;42.130;24.732;2023-04-03T07:37:29;6.13;;;3.50;;
5754;SDS011;2902;42.130;24.732;2023-04-03T07:39:57;7.80;;;4.30;;
5754;SDS011;2902;42.130;24.732;2023-04-03T07:42:24;19.87;;;4.07;;
5754;SDS011;2902;42.130;24.732;2023-04-03T07:44:51;3.53;;;3.30;;
5754;SDS011;2902;42.130;24.732;2023-04-03T07:47:18;7.70;;;3.43;;
5754;SDS011;2902;42.130;24.732;2023-04-03T07:49:47;9.27;;;4.17;;
5754;SDS011;2902;42.130;24.732;2023-04-03T07:52:14;3.70;;;3.40;;
5754;SDS011;2902;42.130;24.732;2023-04-03T07:54:41;3.27;;;2.60;;
5754;SDS011;2902;42.130;24.732;2023-04-03T07:57:07;3.90;;;3.10;;
5754;SDS011;2902;42.130;24.732;2023-04-03T07:59:34;7.03;;;3.43;;
5754;SDS011;2902;42.130;24.732;2023-04-03T08:02:01;3.30;;;3.00;;
5754;SDS011;2902;42.130;24.732;2023-04-03T08:04:30;4.13;;;3.20;;
5754;SDS011;2902;42.130;24.732;2023-04-03T08:06:58;6.97;;;3.03;;
5754;SDS011;2902;42.130;24.732;2023-04-03T08:09:24;3.97;;;3.63;;
5754;SDS011;2902;42.130;24.732;2023-04-03T08:11:51;3.47;;;3.00;;
5754;SDS011;2902;42.130;24.732;2023-04-03T08:14:18;2.53;;;2.33;;
5754;SDS011;2902;42.130;24.732;2023-04-03T08:16:46;9.53;;;2.83;;
5754;SDS011;2902;42.130;24.732;2023-04-03T08:19:13;3.20;;;2.90;;
5754;SDS011;2902;42.130;24.732;2023-04-03T08:21:43;4.53;;;3.33;;
5754;SDS011;2902;42.130;24.732;2023-04-03T08:24:11;3.13;;;2.83;;
5754;SDS011;2902;42.130;24.732;2023-04-03T08:26:38;7.50;;;3.23;;
5754;SDS011;2902;42.130;24.732;2023-04-03T08:29:05;4.80;;;3.27;;
5754;SDS011;2902;42.130;24.732;2023-04-03T08:31:31;9.10;;;3.43;;
5754;SDS011;2902;42.130;24.732;2023-04-03T08:33:58;4.87;;;3.77;;
5754;SDS011;2902;42.130;24.732;2023-04-03T08:36:25;7.67;;;3.50;;
5754;SDS011;2902;42.130;24.732;2023-04-03T08:38:54;5.27;;;4.33;;
5754;SDS011;2902;42.130;24.732;2023-04-03T08:41:26;7.03;;;4.20;;
5754;SDS011;2902;42.130;24.732;2023-04-03T08:43:59;4.73;;;4.37;;
5754;SDS011;2902;42.130;24.732;2023-04-03T08:46:33;13.13;;;5.17;;
5754;SDS011;2902;42.130;24.732;2023-04-03T08:49:10;11.37;;;5.60;;
5754;SDS011;2902;42.130;24.732;2023-04-03T08:51:43;6.53;;;5.80;;
5754;SDS011;2902;42.130;24.732;2023-04-03T08:54:17;6.53;;;4.93;;
5754;SDS011;2902;42.130;24.732;2023-04-03T08:56:52;5.17;;;4.20;;
5754;SDS011;2902;42.130;24.732;2023-04-03T08:59:21;7.30;;;3.53;;
5754;SDS011;2902;42.130;24.732;2023-04-03T09:01:53;7.90;;;4.40;;
5754;SDS011;2902;42.130;24.732;2023-04-03T09:04:21;5.00;;;4.60;;
5754;SDS011;2902;42.130;24.732;2023-04-03T09:06:49;7.97;;;4.10;;
5754;SDS011;2902;42.130;24.732;2023-04-03T09:09:24;8.33;;;4.43;;
5754;SDS011;2902;42.130;24.732;2023-04-03T09:12:03;11.73;;;4.57;;
5754;SDS011;2902;42.130;24.732;2023-04-03T09:14:41;4.83;;;4.03;;
5754;SDS011;2902;42.130;24.732;2023-04-03T09:17:13;11.13;;;4.57;;
5754;SDS011;2902;42.130;24.732;2023-04-03T09:19:47;9.03;;;4.20;;
5754;SDS011;2902;42.130;24.732;2023-04-03T09:22:21;7.63;;;3.80;;
5754;SDS011;2902;42.130;24.732;2023-04-03T09:24:52;6.63;;;4.00;;
5754;SDS011;2902;42.130;24.732;2023-04-03T09:27:25;10.00;;;4.20;;
5754;SDS011;2902;42.130;24.732;2023-04-03T09:29:52;7.70;;;4.60;;
5754;SDS011;2902;42.130;24.732;2023-04-03T09:32:22;9.97;;;3.93;;
5754;SDS011;2902;42.130;24.732;2023-04-03T09:34:52;6.23;;;3.47;;
5754;SDS011;2902;42.130;24.732;2023-04-03T09:37:33;4.60;;;3.20;;
5754;SDS011;2902;42.130;24.732;2023-04-03T09:40:02;3.77;;;3.40;;
5754;SDS011;2902;42.130;24.732;2023-04-03T09:42:32;3.60;;;3.33;;
5754;SDS011;2902;42.130;24.732;2023-04-03T09:45:00;3.33;;;3.07;;
5754;SDS011;2902;42.130;24.732;2023-04-03T09:47:28;5.43;;;3.03;;
5754;SDS011;2902;42.130;24.732;2023-04-03T09:52:45;2.50;;;2.40;;
5754;SDS011;2902;42.130;24.732;2023-04-03T09:55:13;3.77;;;3.47;;
5754;SDS011;2902;42.130;24.732;2023-04-03T09:57:44;3.60;;;3.30;;
5754;SDS011;2902;42.130;24.732;2023-04-03T10:00:19;6.97;;;4.40;;
5754;SDS011;2902;42.130;24.732;2023-04-03T10:02:51;5.07;;;3.27;;
5754;SDS011;2902;42.130;24.732;2023-04-03T10:05:27;6.47;;;4.57;;
5754;SDS011;2902;42.130;24.732;2023-04-03T10:08:07;4.80;;;2.63;;
5754;SDS011;2902;42.130;24.732;2023-04-03T10:10:35;6.43;;;5.07;;
5754;SDS011;2902;42.130;24.732;2023-04-03T10:13:05;11.50;;;6.80;;
5754;SDS011;2902;42.130;24.732;2023-04-03T10:15:34;6.17;;;5.77;;
5754;SDS011;2902;42.130;24.732;2023-04-03T10:18:05;4.37;;;2.97;;
5754;SDS011;2902;42.130;24.732;2023-04-03T10:20:48;3.07;;;2.87;;
5754;SDS011;2902;42.130;24.732;2023-04-03T10:23:17;2.60;;;2.40;;
5754;SDS011;2902;42.130;24.732;2023-04-03T10:25:50;3.33;;;2.97;;
5754;SDS011;2902;42.130;24.732;2023-04-03T10:28:31;3.30;;;3.00;;
5754;SDS011;2902;42.130;24.732;2023-04-03T10:31:04;3.00;;;2.80;;
5754;SDS011;2902;42.130;24.732;2023-04-03T10:33:40;3.60;;;3.40;;
5754;SDS011;2902;42.130;24.732;2023-04-03T10:36:19;3.20;;;2.90;;
5754;SDS011;2902;42.130;24.732;2023-04-03T10:38:57;3.50;;;3.30;;
5754;SDS011;2902;42.130;24.732;2023-04-03T10:41:36;4.73;;;3.23;;
5754;SDS011;2902;42.130;24.732;2023-04-03T10:44:15;3.40;;;3.10;;
5754;SDS011;2902;42.130;24.732;2023-04-03T10:46:58;5.20;;;3.00;;
5754;SDS011;2902;42.130;24.732;2023-04-03T10:49:35;4.87;;;3.93;;
5754;SDS011;2902;42.130;24.732;2023-04-03T10:52:13;3.43;;;3.23;;
5754;SDS011;2902;42.130;24.732;2023-04-03T10:54:45;4.40;;;3.00;;
5754;SDS011;2902;42.130;24.732;2023-04-03T10:57:15;3.53;;;2.90;;
5754;SDS011;2902;42.130;24.732;2023-04-03T10:59:45;3.10;;;2.80;;
5754;SDS011;2902;42.130;24.732;2023-04-03T11:02:17;3.13;;;2.77;;
5754;SDS011;2902;42.130;24.732;2023-04-03T11:04:50;3.80;;;3.00;;
5754;SDS011;2902;42.130;24.732;2023-04-03T11:07:20;3.30;;;3.00;;
5754;SDS011;2902;42.130;24.732;2023-04-03T11:09:48;3.30;;;3.07;;
5754;SDS011;2902;42.130;24.732;2023-04-03T11:12:18;3.33;;;3.13;;
5754;SDS011;2902;42.130;24.732;2023-04-03T11:14:53;4.03;;;3.57;;
5754;SDS011;2902;42.130;24.732;2023-04-03T11:17:25;3.17;;;2.90;;
5754;SDS011;2902;42.130;24.732;2023-04-03T11:19:59;3.60;;;2.93;;
5754;SDS011;2902;42.130;24.732;2023-04-03T11:22:33;4.13;;;3.70;;
5754;SDS011;2902;42.130;24.732;2023-04-03T11:25:04;3.90;;;3.60;;
5754;SDS011;2902;42.130;24.732;2023-04-03T11:27:46;3.77;;;3.33;;
5754;SDS011;2902;42.130;24.732;2023-04-03T11:30:19;4.47;;;4.17;;
5754;SDS011;2902;42.130;24.732;2023-04-03T11:35:44;4.57;;;3.80;;
5754;SDS011;2902;42.130;24.732;2023-04-03T11:38:15;3.50;;;3.20;;
5754;SDS011;2902;42.130;24.732;2023-04-03T11:40:48;3.80;;;3.03;;
5754;SDS011;2902;42.130;24.732;2023-04-03T11:43:21;3.80;;;3.60;;
5754;SDS011;2902;42.130;24.732;2023-04-03T11:45:53;4.83;;;4.03;;
5754;SDS011;2902;42.130;24.732;2023-04-03T11:48:44;4.03;;;3.63;;
5754;SDS011;2902;42.130;24.732;2023-04-03T11:57:14;4.63;;;3.40;;
5754;SDS011;2902;42.130;24.732;2023-04-03T12:03:56;3.50;;;3.20;;
5754;SDS011;2902;42.130;24.732;2023-04-03T12:12:41;4.73;;;4.17;;
5754;SDS011;2902;42.130;24.732;2023-04-03T12:21:19;4.80;;;4.37;;
5754;SDS011;2902;42.130;24.732;2023-04-03T12:23:56;4.87;;;4.47;;
5754;SDS011;2902;42.130;24.732;2023-04-03T12:26:30;5.23;;;4.57;;
5754;SDS011;2902;42.130;24.732;2023-04-03T12:29:02;7.40;;;6.70;;
5754;SDS011;2902;42.130;24.732;2023-04-03T12:31:41;14.20;;;12.97;;
5754;SDS011;2902;42.130;24.732;2023-04-03T12:34:17;9.53;;;8.73;;
5754;SDS011;2902;42.130;24.732;2023-04-03T12:36:59;5.30;;;4.80;;
5754;SDS011;2902;42.130;24.732;2023-04-03T12:39:44;6.50;;;5.20;;
5754;SDS011;2902;42.130;24.732;2023-04-03T12:42:24;6.03;;;5.50;;
5754;SDS011;2902;42.130;24.732;2023-04-03T12:45:02;6.10;;;5.60;;
5754;SDS011;2902;42.130;24.732;2023-04-03T12:47:36;5.67;;;5.17;;
5754;SDS011;2902;42.130;24.732;2023-04-03T12:50:13;5.47;;;4.93;;
5754;SDS011;2902;42.130;24.732;2023-04-03T12:52:49;5.10;;;4.60;;
5754;SDS011;2902;42.130;24.732;2023-04-03T12:55:20;9.87;;;4.40;;
5754;SDS011;2902;42.130;24.732;2023-04-03T12:57:47;7.17;;;3.00;;
5754;SDS011;2902;42.130;24.732;2023-04-03T13:00:22;8.30;;;4.23;;
5754;SDS011;2902;42.130;24.732;2023-04-03T13:02:58;5.50;;;5.00;;
5754;SDS011;2902;42.130;24.732;2023-04-03T13:05:25;6.80;;;6.20;;
5754;SDS011;2902;42.130;24.732;2023-04-03T13:07:54;7.33;;;5.67;;
5754;SDS011;2902;42.130;24.732;2023-04-03T13:10:25;12.03;;;7.20;;
5754;SDS011;2902;42.130;24.732;2023-04-03T13:12:52;7.50;;;6.80;;
5754;SDS011;2902;42.130;24.732;2023-04-03T13:15:22;10.00;;;7.73;;
5754;SDS011;2902;42.130;24.732;2023-04-03T13:17:50;6.47;;;5.87;;
5754;SDS011;2902;42.130;24.732;2023-04-03T13:20:19;7.40;;;6.33;;
5754;SDS011;2902;42.130;24.732;2023-04-03T13:22:50;6.67;;;6.07;;
5754;SDS011;2902;42.130;24.732;2023-04-03T13:25:23;7.63;;;6.70;;
5754;SDS011;2902;42.130;24.732;2023-04-03T13:27:52;6.60;;;6.10;;
5754;SDS011;2902;42.130;24.732;2023-04-03T13:30:21;10.33;;;7.57;;
5754;SDS011;2902;42.130;24.732;2023-04-03T13:32:51;6.83;;;6.17;;
5754;SDS011;2902;42.130;24.732;2023-04-03T13:35:25;7.67;;;6.87;;
5754;SDS011;2902;42.130;24.732;2023-04-03T13:37:56;6.60;;;5.60;;
5754;SDS011;2902;42.130;24.732;2023-04-03T13:40:24;7.00;;;6.30;;
5754;SDS011;2902;42.130;24.732;2023-04-03T13:42:59;10.23;;;9.47;;
5754;SDS011;2902;42.130;24.732;2023-04-03T13:45:28;8.60;;;7.87;;
5754;SDS011;2902;42.130;24.732;2023-04-03T13:48:06;9.30;;;7.23;;
5754;SDS011;2902;42.130;24.732;2023-04-03T13:50:50;9.03;;;7.20;;
5754;SDS011;2902;42.130;24.732;2023-04-03T13:53:21;7.10;;;6.43;;
5754;SDS011;2902;42.130;24.732;2023-04-03T13:55:56;6.83;;;6.33;;
5754;SDS011;2902;42.130;24.732;2023-04-03T13:58:32;6.87;;;6.27;;
5754;SDS011;2902;42.130;24.732;2023-04-03T14:01:01;6.97;;;6.30;;
5754;SDS011;2902;42.130;24.732;2023-04-03T14:03:36;8.30;;;7.10;;
5754;SDS011;2902;42.130;24.732;2023-04-03T14:06:08;7.93;;;7.30;;
5754;SDS011;2902;42.130;24.732;2023-04-03T14:08:38;8.10;;;7.43;;
5754;SDS011;2902;42.130;24.732;2023-04-03T14:11:08;9.10;;;8.40;;
5754;SDS011;2902;42.130;24.732;2023-04-03T14:13:39;10.87;;;9.87;;
5754;SDS011;2902;42.130;24.732;2023-04-03T14:16:06;10.97;;;9.80;;
5754;SDS011;2902;42.130;24.732;2023-04-03T14:18:33;13.80;;;8.77;;
5754;SDS011;2902;42.130;24.732;2023-04-03T14:20:59;11.10;;;10.17;;
5754;SDS011;2902;42.130;24.732;2023-04-03T14:23:26;10.07;;;9.10;;
5754;SDS011;2902;42.130;24.732;2023-04-03T14:25:54;11.43;;;10.40;;
5754;SDS011;2902;42.130;24.732;2023-04-03T14:28:21;11.97;;;10.57;;
5754;SDS011;2902;42.130;24.732;2023-04-03T14:30:50;10.77;;;9.77;;
5754;SDS011;2902;42.130;24.732;2023-04-03T14:33:18;10.70;;;9.70;;
5754;SDS011;2902;42.130;24.732;2023-04-03T14:35:47;9.70;;;8.80;;
5754;SDS011;2902;42.130;24.732;2023-04-03T14:38:20;9.50;;;8.67;;
5754;SDS011;2902;42.130;24.732;2023-04-03T14:40:50;10.43;;;8.60;;
5754;SDS011;2902;42.130;24.732;2023-04-03T14:43:19;9.93;;;8.93;;
5754;SDS011;2902;42.130;24.732;2023-04-03T14:45:47;9.20;;;8.40;;
5754;SDS011;2902;42.130;24.732;2023-04-03T14:48:16;9.93;;;9.00;;
5754;SDS011;2902;42.130;24.732;2023-04-03T14:50:45;9.67;;;8.80;;
5754;SDS011;2902;42.130;24.732;2023-04-03T14:53:13;9.30;;;8.40;;
5754;SDS011;2902;42.130;24.732;2023-04-03T14:55:42;12.77;;;10.00;;
5754;SDS011;2902;42.130;24.732;2023-04-03T14:58:12;10.97;;;9.90;;
5754;SDS011;2902;42.130;24.732;2023-04-03T15:00:41;13.93;;;9.33;;
5754;SDS011;2902;42.130;24.732;2023-04-03T15:03:12;11.10;;;9.97;;
5754;SDS011;2902;42.130;24.732;2023-04-03T15:05:40;11.47;;;9.80;;
5754;SDS011;2902;42.130;24.732;2023-04-03T15:08:10;13.03;;;11.10;;
5754;SDS011;2902;42.130;24.732;2023-04-03T15:10:43;12.03;;;10.73;;
5754;SDS011;2902;42.130;24.732;2023-04-03T15:13:11;13.27;;;11.00;;
5754;SDS011;2902;42.130;24.732;2023-04-03T15:15:38;12.73;;;11.57;;
5754;SDS011;2902;42.130;24.732;2023-04-03T15:18:07;14.40;;;12.30;;
5754;SDS011;2902;42.130;24.732;2023-04-03T15:20:40;14.93;;;11.80;;
5754;SDS011;2902;42.130;24.732;2023-04-03T15:23:08;13.77;;;11.50;;
5754;SDS011;2902;42.130;24.732;2023-04-03T15:25:36;12.77;;;11.43;;
5754;SDS011;2902;42.130;24.732;2023-04-03T15:28:03;13.07;;;11.77;;
5754;SDS011;2902;42.130;24.732;2023-04-03T15:30:30;16.63;;;11.53;;
5754;SDS011;2902;42.130;24.732;2023-04-03T15:32:57;13.20;;;10.73;;
5754;SDS011;2902;42.130;24.732;2023-04-03T15:35:25;12.83;;;11.13;;
5754;SDS011;2902;42.130;24.732;2023-04-03T15:37:51;11.33;;;9.87;;
5754;SDS011;2902;42.130;24.732;2023-04-03T15:40:18;11.23;;;9.90;;
5754;SDS011;2902;42.130;24.732;2023-04-03T15:42:45;14.00;;;11.67;;